createdAt,value
2018-06-18T00:01:09.793Z,81.01
2018-06-18T00:03:39.195Z,81.68
2018-06-18T00:06:08.520Z,84.34
2018-06-18T00:08:37.928Z,83.14
2018-06-18T00:11:07.248Z,83.26
2018-06-18T00:13:36.887Z,82.91
2018-06-18T00:16:06.684Z,83.75
2018-06-18T00:18:36.132Z,83.32
2018-06-18T00:21:05.467Z,82.65
2018-06-18T00:23:34.848Z,83.02
2018-06-18T00:26:04.177Z,80.89
2018-06-18T00:28:33.556Z,81.06
2018-06-18T00:31:02.937Z,81.75
2018-06-18T00:33:32.233Z,81.94
2018-06-18T00:36:01.549Z,82.65
2018-06-18T00:38:30.884Z,82.67
2018-06-18T00:41:00.221Z,82.78
2018-06-18T00:43:29.555Z,82.82
2018-06-18T00:45:58.863Z,82.96
2018-06-18T00:48:28.170Z,83.09
2018-06-18T00:50:57.495Z,83.20
2018-06-18T00:53:26.822Z,83.26
2018-06-18T00:56:10.284Z,83.74
2018-06-18T00:58:40.052Z,82.47
2018-06-18T01:01:09.883Z,82.12
2018-06-18T01:03:39.211Z,81.50
2018-06-18T01:06:08.782Z,80.17
2018-06-18T01:08:38.146Z,80.31
2018-06-18T01:11:07.472Z,81.78
2018-06-18T01:13:36.808Z,81.53
2018-06-18T01:16:06.251Z,81.55
2018-06-18T01:18:35.615Z,82.85
2018-06-18T01:21:04.944Z,83.33
2018-06-18T01:24:17.151Z,82.97
2018-06-18T01:26:46.491Z,83.61
2018-06-18T01:29:15.805Z,82.94
2018-06-18T01:31:45.114Z,82.46
2018-06-18T01:34:25.047Z,83.37
2018-06-18T01:36:54.756Z,83.11
2018-06-18T01:39:24.684Z,82.38
2018-06-18T01:41:54.275Z,82.82
2018-06-18T01:44:23.585Z,82.64
2018-06-18T01:46:52.945Z,82.21
2018-06-18T01:49:22.335Z,81.88
2018-06-18T01:51:51.664Z,81.49
2018-06-18T01:54:20.975Z,78.56
2018-06-18T01:56:50.331Z,79.94
2018-06-18T01:59:19.631Z,80.13
2018-06-18T02:01:48.944Z,79.93
2018-06-18T02:04:18.361Z,80.10
2018-06-18T02:06:47.672Z,80.17
2018-06-18T02:09:17.041Z,78.91
2018-06-18T02:11:46.351Z,79.83
2018-06-18T02:14:15.763Z,79.08
2018-06-18T02:16:45.205Z,79.63
2018-06-18T02:19:14.528Z,80.24
2018-06-18T02:21:43.888Z,79.30
2018-06-18T02:24:13.208Z,80.81
2018-06-18T02:26:42.615Z,81.19
2018-06-18T02:29:17.097Z,81.72
2018-06-18T02:31:51.744Z,81.87
2018-06-18T02:34:26.389Z,82.23
2018-06-18T02:37:01.051Z,82.78
2018-06-18T02:39:30.444Z,82.44
2018-06-18T02:41:59.746Z,83.05
2018-06-18T02:44:29.064Z,83.11
2018-06-18T02:46:58.392Z,82.88
2018-06-18T02:49:27.757Z,82.56
2018-06-18T02:51:57.117Z,81.47
2018-06-18T02:54:26.436Z,80.52
2018-06-18T02:57:04.159Z,80.96
2018-06-18T02:59:33.545Z,80.81
2018-06-18T03:02:02.852Z,80.97
2018-06-18T03:04:32.184Z,81.42
2018-06-18T03:07:01.532Z,82.86
2018-06-18T03:09:30.877Z,82.81
2018-06-18T03:12:00.172Z,82.91
2018-06-18T03:14:29.583Z,83.15
2018-06-18T03:16:58.904Z,83.99
2018-06-18T03:19:33.583Z,83.52
2018-06-18T03:22:08.092Z,84.28
2018-06-18T03:24:42.818Z,84.73
2018-06-18T03:27:17.343Z,84.21
2018-06-18T03:29:46.793Z,83.92
2018-06-18T03:32:18.400Z,84.11
2018-06-18T03:34:47.793Z,84.13
2018-06-18T03:37:19.668Z,84.11
2018-06-18T03:39:49.000Z,84.32
2018-06-18T03:42:18.362Z,83.66
2018-06-18T03:44:56.115Z,83.91
2018-06-18T03:47:28.495Z,84.02
2018-06-18T03:49:57.884Z,84.04
2018-06-18T03:52:27.212Z,83.77
2018-06-18T03:55:00.296Z,84.50
2018-06-18T03:57:29.699Z,84.13
2018-06-18T03:59:59.045Z,84.06
2018-06-18T04:02:42.719Z,84.86
2018-06-18T04:05:17.213Z,84.90
2018-06-18T04:07:59.596Z,84.18
2018-06-18T04:10:39.439Z,85.33
2018-06-18T04:13:09.456Z,84.54
2018-06-18T04:15:38.807Z,85.40
2018-06-18T04:18:08.128Z,84.34
2018-06-18T04:20:42.536Z,85.36
2018-06-18T04:23:11.604Z,86.17
2018-06-18T04:25:40.932Z,86.49
2018-06-18T04:28:10.389Z,85.63
2018-06-18T04:30:39.715Z,85.20
2018-06-18T04:33:09.752Z,84.25
2018-06-18T04:35:38.907Z,84.76
2018-06-18T04:38:08.235Z,84.36
2018-06-18T04:40:37.556Z,83.94
2018-06-18T04:43:12.245Z,84.27
2018-06-18T04:45:45.828Z,83.38
2018-06-18T04:48:20.451Z,83.02
2018-06-18T04:50:55.029Z,83.69
2018-06-18T04:53:24.373Z,83.77
2018-06-18T04:55:53.683Z,84.82
2018-06-18T04:58:22.998Z,84.56
2018-06-18T05:01:05.218Z,83.91
2018-06-18T05:03:34.587Z,84.28
2018-06-18T05:06:03.916Z,83.92
2018-06-18T05:10:55.674Z,83.93
2018-06-18T05:13:25.180Z,83.82
2018-06-18T05:15:55.327Z,83.36
2018-06-18T05:18:24.684Z,84.73
2018-06-18T05:20:54.004Z,84.66
2018-06-18T05:23:23.345Z,84.11
2018-06-18T05:25:58.844Z,84.30
2018-06-18T05:28:28.171Z,84.09
2018-06-18T05:30:58.080Z,83.60
2018-06-18T05:33:27.435Z,84.14
2018-06-18T05:35:56.869Z,84.31
2018-06-18T05:38:33.807Z,84.08
2018-06-18T05:41:03.132Z,84.17
2018-06-18T05:43:32.781Z,83.33
2018-06-18T05:46:02.085Z,83.79
2018-06-18T05:48:31.399Z,83.46
2018-06-18T05:51:00.756Z,82.53
2018-06-18T05:53:30.084Z,83.18
2018-06-18T05:55:59.421Z,82.82
2018-06-18T05:58:28.734Z,83.16
2018-06-18T06:00:58.044Z,82.45
2018-06-18T06:03:27.391Z,82.11
2018-06-18T06:05:56.763Z,81.73
2018-06-18T06:08:26.097Z,81.36
2018-06-18T06:10:55.142Z,82.06
2018-06-18T06:13:24.450Z,80.83
2018-06-18T06:15:53.790Z,81.89
2018-06-18T06:18:23.120Z,81.24
2018-06-18T06:20:57.172Z,82.31
2018-06-18T06:23:26.536Z,82.26
2018-06-18T06:25:55.852Z,80.50
2018-06-18T06:28:25.342Z,81.21
2018-06-18T06:30:54.829Z,81.22
2018-06-18T06:33:25.884Z,80.75
2018-06-18T06:35:57.077Z,80.61
2018-06-18T06:38:26.428Z,80.46
2018-06-18T06:40:55.765Z,78.53
2018-06-18T06:43:25.068Z,79.42
2018-06-18T06:45:54.387Z,78.86
2018-06-18T06:48:23.740Z,78.65
2018-06-18T06:50:53.416Z,78.28
2018-06-18T06:53:22.768Z,79.38
2018-06-18T06:55:52.136Z,77.90
2018-06-18T06:58:21.455Z,78.16
2018-06-18T07:00:50.833Z,76.82
2018-06-18T07:03:20.167Z,76.00
2018-06-18T07:05:49.533Z,77.27
2018-06-18T07:08:18.856Z,76.38
2018-06-18T07:10:48.164Z,75.57
2018-06-18T07:13:17.605Z,75.19
2018-06-18T07:15:46.854Z,74.72
2018-06-18T07:18:16.137Z,74.76
2018-06-18T07:20:45.468Z,73.61
2018-06-18T07:23:14.789Z,73.46
2018-06-18T07:25:44.109Z,74.21
2018-06-18T07:28:13.493Z,74.14
2018-06-18T07:30:42.896Z,73.70
2018-06-18T07:33:12.108Z,73.65
2018-06-18T07:35:41.452Z,74.49
2018-06-18T07:38:10.813Z,72.27
2018-06-18T07:40:40.129Z,71.28
2018-06-18T07:43:09.461Z,69.13
2018-06-18T07:45:38.821Z,69.86
2018-06-18T07:48:08.118Z,70.61
2018-06-18T07:50:37.437Z,69.99
2018-06-18T07:53:06.856Z,69.62
2018-06-18T07:55:36.277Z,68.72
2018-06-18T07:58:06.215Z,68.50
2018-06-18T08:00:35.531Z,67.89
2018-06-18T08:03:04.885Z,67.90
2018-06-18T08:05:34.529Z,69.30
2018-06-18T08:08:03.922Z,67.65
2018-06-18T08:10:33.240Z,68.23
2018-06-18T08:13:02.579Z,67.51
2018-06-18T08:15:31.703Z,67.86
2018-06-18T08:18:01.009Z,67.18
2018-06-18T08:20:30.329Z,68.40
2018-06-18T08:22:59.690Z,67.93
2018-06-18T08:25:28.995Z,69.30
2018-06-18T08:27:58.320Z,69.16
2018-06-18T08:30:27.648Z,70.22
2018-06-18T08:32:56.960Z,67.98
2018-06-18T08:35:26.311Z,69.43
2018-06-18T08:37:55.668Z,69.25
2018-06-18T08:40:25.005Z,68.48
2018-06-18T08:42:54.385Z,67.98
2018-06-18T08:45:23.708Z,68.28
2018-06-18T08:47:53.021Z,67.07
2018-06-18T08:50:27.602Z,67.54
2018-06-18T08:53:02.296Z,67.09
2018-06-18T08:55:36.792Z,67.70
2018-06-18T08:58:11.629Z,69.05
2018-06-18T09:00:46.161Z,69.88
2018-06-18T09:03:20.743Z,67.47
2018-06-18T09:05:54.726Z,68.95
2018-06-18T09:08:27.919Z,67.72
2018-06-18T09:10:57.423Z,68.08
2018-06-18T09:13:27.173Z,68.75
2018-06-18T09:15:56.528Z,68.83
2018-06-18T09:18:25.904Z,69.65
2018-06-18T09:20:55.236Z,68.84
2018-06-18T09:23:24.603Z,68.15
2018-06-18T09:25:57.888Z,68.28
2018-06-18T09:28:29.537Z,68.92
2018-06-18T09:30:58.980Z,67.63
2018-06-18T09:33:28.328Z,68.25
2018-06-18T09:35:57.750Z,68.79
2018-06-18T09:38:27.060Z,66.73
2018-06-18T09:40:56.383Z,65.41
2018-06-18T09:43:25.740Z,65.63
2018-06-18T09:45:55.359Z,63.70
2018-06-18T09:48:30.159Z,64.73
2018-06-18T09:51:04.933Z,62.58
2018-06-18T09:53:39.734Z,62.51
2018-06-18T09:56:14.143Z,61.81
2018-06-18T09:58:48.691Z,62.21
2018-06-18T10:01:22.091Z,62.26
2018-06-18T10:03:51.917Z,62.86
2018-06-18T10:06:23.185Z,63.49
2018-06-18T10:08:52.514Z,63.30
2018-06-18T10:11:21.851Z,63.70
2018-06-18T10:13:51.207Z,64.74
2018-06-18T10:16:20.536Z,65.20
2018-06-18T10:18:49.889Z,66.39
2018-06-18T10:21:19.236Z,65.49
2018-06-18T10:23:48.597Z,65.62
2018-06-18T10:26:18.248Z,65.76
2018-06-18T10:28:47.895Z,65.95
2018-06-18T10:31:17.577Z,66.01
2018-06-18T10:33:52.297Z,67.41
2018-06-18T10:36:26.735Z,67.43
2018-06-18T10:39:01.451Z,63.86
2018-06-18T10:41:36.031Z,65.15
2018-06-18T10:44:05.396Z,65.88
2018-06-18T10:46:34.708Z,66.16
2018-06-18T10:49:04.117Z,67.12
2018-06-18T10:51:33.389Z,67.07
2018-06-18T10:54:02.771Z,66.78
2018-06-18T10:56:32.166Z,67.50
2018-06-18T10:59:01.512Z,67.75
2018-06-18T11:01:33.144Z,67.58
2018-06-18T11:04:03.384Z,68.12
2018-06-18T11:06:37.788Z,66.25
2018-06-18T11:09:11.295Z,65.03
2018-06-18T11:11:40.636Z,66.48
2018-06-18T11:14:09.988Z,65.53
2018-06-18T11:16:39.478Z,66.14
2018-06-18T11:19:13.715Z,66.15
2018-06-18T11:21:48.259Z,67.21
2018-06-18T11:24:22.873Z,67.01
2018-06-18T11:26:57.577Z,67.53
2018-06-18T11:29:26.956Z,66.60
2018-06-18T11:31:56.280Z,66.02
2018-06-18T11:34:25.613Z,65.67
2018-06-18T11:36:54.961Z,63.65
2018-06-18T11:39:24.387Z,65.32
2018-06-18T11:41:53.727Z,63.14
2018-06-18T11:44:22.964Z,63.54
2018-06-18T11:46:52.305Z,59.77
2018-06-18T11:49:21.656Z,62.40
2018-06-18T11:51:50.982Z,61.86
2018-06-18T11:54:20.432Z,62.48
2018-06-18T11:56:49.797Z,60.16
2018-06-18T11:59:24.467Z,61.39
2018-06-18T12:01:59.071Z,59.21
2018-06-18T12:04:33.583Z,57.37
2018-06-18T12:07:08.299Z,58.58
2018-06-18T12:09:42.273Z,60.52
2018-06-18T12:12:11.579Z,60.85
2018-06-18T12:14:40.951Z,61.23
2018-06-18T12:17:10.291Z,60.55
2018-06-18T12:19:39.630Z,62.15
2018-06-18T12:22:09.024Z,62.16
2018-06-18T12:24:38.383Z,60.78
2018-06-18T12:27:08.900Z,63.02
2018-06-18T12:29:38.303Z,63.85
2018-06-18T12:32:07.644Z,63.22
2018-06-18T12:34:37.002Z,62.67
2018-06-18T12:37:06.405Z,61.35
2018-06-18T12:39:35.873Z,61.84
2018-06-18T12:42:07.386Z,63.11
2018-06-18T12:44:44.593Z,62.96
2018-06-18T12:47:19.140Z,62.04
2018-06-18T12:49:53.664Z,62.92
2018-06-18T12:52:28.280Z,62.26
2018-06-18T12:55:02.870Z,61.83
2018-06-18T12:57:32.212Z,63.27
2018-06-18T13:00:01.588Z,63.37
2018-06-18T13:02:36.588Z,62.45
2018-06-18T13:05:06.407Z,64.42
2018-06-18T13:07:35.760Z,65.62
2018-06-18T13:10:05.261Z,65.19
2018-06-18T13:12:34.634Z,65.51
2018-06-18T13:15:04.010Z,64.94
2018-06-18T13:17:33.385Z,63.89
2018-06-18T13:20:02.740Z,63.64
2018-06-18T13:22:32.109Z,61.84
2018-06-18T13:25:01.456Z,61.98
2018-06-18T13:27:36.064Z,61.88
2018-06-18T13:30:05.569Z,62.08
2018-06-18T13:32:34.965Z,62.56
2018-06-18T13:35:04.428Z,63.13
2018-06-18T13:37:39.147Z,62.05
2018-06-18T13:40:13.682Z,62.22
2018-06-18T13:42:48.381Z,61.63
2018-06-18T13:45:22.931Z,61.31
2018-06-18T13:47:57.522Z,61.16
2018-06-18T13:50:27.038Z,61.54
2018-06-18T13:52:56.361Z,61.07
2018-06-18T13:55:25.699Z,59.60
2018-06-18T13:57:55.078Z,61.07
2018-06-18T14:00:24.425Z,59.08
2018-06-18T14:02:53.756Z,57.45
2018-06-18T14:05:23.355Z,55.46
2018-06-18T14:07:53.056Z,56.38
2018-06-18T14:10:22.758Z,55.31
2018-06-18T14:12:52.472Z,55.74
2018-06-18T14:15:22.161Z,58.12
2018-06-18T14:17:51.869Z,58.14
2018-06-18T14:20:23.261Z,58.45
2018-06-18T14:22:53.369Z,56.93
2018-06-18T14:25:22.775Z,59.63
2018-06-18T14:27:52.107Z,61.02
2018-06-18T14:30:26.529Z,58.66
2018-06-18T14:33:01.185Z,58.30
2018-06-18T14:35:35.708Z,59.76
2018-06-18T14:38:10.337Z,61.65
2018-06-18T14:40:39.723Z,60.84
2018-06-18T14:43:09.128Z,60.98
2018-06-18T14:45:38.648Z,61.65
2018-06-18T14:48:07.966Z,59.74
2018-06-18T14:50:37.317Z,58.56
2018-06-18T14:53:06.687Z,60.04
2018-06-18T14:55:36.044Z,59.42
2018-06-18T14:58:05.434Z,59.99
2018-06-18T15:00:35.801Z,59.44
2018-06-18T15:03:05.140Z,58.16
2018-06-18T15:05:39.588Z,57.76
2018-06-18T15:08:08.983Z,54.22
2018-06-18T15:10:43.423Z,53.15
2018-06-18T15:13:14.923Z,53.53
2018-06-18T15:15:49.651Z,54.75
2018-06-18T15:18:18.991Z,57.60
2018-06-18T15:20:49.292Z,55.87
2018-06-18T15:23:18.701Z,57.25
2018-06-18T15:25:50.602Z,58.13
2018-06-18T15:28:19.931Z,58.11
2018-06-18T15:30:50.388Z,59.67
2018-06-18T15:33:19.769Z,60.22
2018-06-18T15:35:49.177Z,61.60
2018-06-18T15:38:18.648Z,61.18
2018-06-18T15:40:47.884Z,60.75
2018-06-18T15:43:17.241Z,60.55
2018-06-18T15:45:46.608Z,60.76
2018-06-18T15:48:15.931Z,60.58
2018-06-18T15:50:45.264Z,61.26
2018-06-18T15:53:14.597Z,61.57
2018-06-18T15:55:43.936Z,61.33
2018-06-18T15:58:13.271Z,60.29
2018-06-18T16:00:42.628Z,60.54
2018-06-18T16:03:11.940Z,61.59
2018-06-18T16:05:41.337Z,62.79
2018-06-18T16:08:10.684Z,60.98
2018-06-18T16:10:40.025Z,61.32
2018-06-18T16:13:09.449Z,62.20
2018-06-18T16:15:38.772Z,62.62
2018-06-18T16:18:08.112Z,62.34
2018-06-18T16:20:37.432Z,62.85
2018-06-18T16:23:06.849Z,61.49
2018-06-18T16:25:36.206Z,62.86
2018-06-18T16:28:05.915Z,62.03
2018-06-18T16:30:35.237Z,62.65
2018-06-18T16:33:04.756Z,63.28
2018-06-18T16:35:34.429Z,64.64
2018-06-18T16:38:04.039Z,64.46
2018-06-18T16:40:33.665Z,65.31
2018-06-18T16:43:03.244Z,63.35
2018-06-18T16:45:32.956Z,65.07
2018-06-18T16:48:02.615Z,64.49
2018-06-18T16:50:32.388Z,63.69
2018-06-18T16:53:02.050Z,65.01
2018-06-18T16:55:31.418Z,66.42
2018-06-18T16:58:01.080Z,66.59
2018-06-18T17:00:30.810Z,66.56
2018-06-18T17:03:00.488Z,67.47
2018-06-18T17:05:29.660Z,67.82
2018-06-18T17:07:58.991Z,69.28
2018-06-18T17:10:28.509Z,69.72
2018-06-18T17:12:57.829Z,69.99
2018-06-18T17:15:27.176Z,70.97
2018-06-18T17:17:56.585Z,71.37
2018-06-18T17:20:25.894Z,69.64
2018-06-18T17:22:55.315Z,67.73
2018-06-18T17:25:24.671Z,69.36
2018-06-18T17:27:54.075Z,69.28
2018-06-18T17:30:23.452Z,70.13
2018-06-18T17:32:52.811Z,68.88
2018-06-18T17:35:22.208Z,70.43
2018-06-18T17:37:51.603Z,70.08
2018-06-18T17:40:21.028Z,71.53
2018-06-18T17:42:50.341Z,71.80
2018-06-18T17:45:19.756Z,72.37
2018-06-18T17:47:49.232Z,72.45
2018-06-18T17:50:18.524Z,71.89
2018-06-18T17:52:47.850Z,71.36
2018-06-18T17:55:17.178Z,66.98
2018-06-18T17:57:46.492Z,67.47
2018-06-18T18:00:15.844Z,67.44
2018-06-18T18:02:45.172Z,68.68
2018-06-18T18:05:14.599Z,69.96
2018-06-18T18:07:44.017Z,71.00
2018-06-18T18:10:13.420Z,71.04
2018-06-18T18:12:42.843Z,71.81
2018-06-18T18:15:12.253Z,72.97
2018-06-18T18:17:41.727Z,71.84
2018-06-18T18:20:11.089Z,72.48
2018-06-18T18:22:40.451Z,73.56
2018-06-18T18:25:09.888Z,72.90
2018-06-18T18:27:39.265Z,73.23
2018-06-18T18:30:08.632Z,73.06
2018-06-18T18:32:38.036Z,74.28
2018-06-18T18:35:07.380Z,74.93
2018-06-18T18:37:36.737Z,74.70
2018-06-18T18:40:06.213Z,74.67
2018-06-18T18:42:35.582Z,75.98
2018-06-18T18:45:04.968Z,76.47
2018-06-18T18:47:34.753Z,76.07
2018-06-18T18:50:04.564Z,75.95
2018-06-18T18:52:34.454Z,76.81
2018-06-18T18:55:47.757Z,76.02
2018-06-18T18:59:04.043Z,76.63
2018-06-18T19:01:33.906Z,77.05
2018-06-18T19:04:07.248Z,77.09
2018-06-18T19:06:37.775Z,76.71
2018-06-18T19:09:11.796Z,77.86
2018-06-18T19:11:42.585Z,77.15
2018-06-18T19:14:14.414Z,76.94
2018-06-18T19:16:47.335Z,76.41
2018-06-18T19:19:19.860Z,76.65
2018-06-18T19:21:50.877Z,77.31
2018-06-18T19:24:21.165Z,76.77
2018-06-18T19:26:51.132Z,78.02
2018-06-18T19:29:22.027Z,78.53
2018-06-18T19:31:54.012Z,79.53
2018-06-18T19:34:28.348Z,78.65
2018-06-18T19:36:59.486Z,79.01
2018-06-18T19:39:34.608Z,79.61
2018-06-18T19:42:05.289Z,79.33
2018-06-18T19:44:36.625Z,79.78
2018-06-18T19:47:24.200Z,79.94
2018-06-18T19:49:54.198Z,80.07
2018-06-18T19:52:24.178Z,80.18
2018-06-18T19:54:57.831Z,81.57
2018-06-18T19:57:27.972Z,81.20
2018-06-18T19:59:59.275Z,81.49
2018-06-18T20:02:29.329Z,81.71
2018-06-18T20:05:03.808Z,81.89
2018-06-18T20:07:35.117Z,81.24
2018-06-18T20:10:05.859Z,81.65
2018-06-18T20:12:36.673Z,82.41
2018-06-18T20:15:06.819Z,82.54
2018-06-18T20:17:36.461Z,81.27
2018-06-18T20:20:07.706Z,81.73
2018-06-18T20:22:38.142Z,82.69
2018-06-18T20:25:09.288Z,82.66
2018-06-18T20:27:38.967Z,84.27
2018-06-18T20:30:11.055Z,83.84
2018-06-18T20:32:41.006Z,83.54
2018-06-18T20:35:47.832Z,83.82
2018-06-18T20:38:17.169Z,84.54
2018-06-18T20:40:46.508Z,84.46
2018-06-18T20:43:15.870Z,84.64
2018-06-18T20:45:45.220Z,84.77
2018-06-18T20:48:14.585Z,85.44
2018-06-18T20:50:44.031Z,85.59
2018-06-18T20:53:13.325Z,85.91
2018-06-18T20:55:42.502Z,86.74
2018-06-18T20:58:12.270Z,86.31
2018-06-18T21:00:41.607Z,86.80
2018-06-18T21:03:10.995Z,86.25
2018-06-18T21:05:40.409Z,86.38
2018-06-18T21:08:10.054Z,86.40
2018-06-18T21:10:39.364Z,86.59
2018-06-18T21:13:08.689Z,86.00
2018-06-18T21:15:38.026Z,86.05
2018-06-18T21:18:07.471Z,85.97
2018-06-18T21:20:36.824Z,85.66
2018-06-18T21:23:06.170Z,85.62
2018-06-18T21:25:35.531Z,85.02
2018-06-18T21:28:04.915Z,85.11
2018-06-18T21:30:34.240Z,85.87
2018-06-18T21:33:03.589Z,85.24
2018-06-18T21:35:34.115Z,84.63
2018-06-18T21:38:03.836Z,85.38
2018-06-18T21:40:33.422Z,85.05
2018-06-18T21:43:03.061Z,86.09
2018-06-18T21:45:32.462Z,86.39
2018-06-18T21:48:01.813Z,85.13
2018-06-18T21:50:31.128Z,84.82
2018-06-18T21:53:00.464Z,84.68
2018-06-18T21:55:29.928Z,84.99
2018-06-18T21:57:59.261Z,84.68
2018-06-18T22:00:35.551Z,85.61
2018-06-18T22:03:05.075Z,85.73
2018-06-18T22:05:34.770Z,85.28
2018-06-18T22:08:07.275Z,86.38
2018-06-18T22:10:36.974Z,85.99
2018-06-18T22:13:06.746Z,87.86
2018-06-18T22:15:36.614Z,87.60
2018-06-18T22:18:06.648Z,87.79
2018-06-18T22:20:36.320Z,89.03
2018-06-18T22:23:06.193Z,87.95
2018-06-18T22:25:35.784Z,88.40
2018-06-18T22:28:09.794Z,88.14
2018-06-18T22:30:39.509Z,87.86
2018-06-18T22:33:09.225Z,87.97
2018-06-18T22:35:38.584Z,88.53
2018-06-18T22:38:08.035Z,88.87
2018-06-18T22:40:37.428Z,89.52
2018-06-18T22:43:06.915Z,90.01
2018-06-18T22:45:36.273Z,88.32
2018-06-18T22:48:05.753Z,88.59
2018-06-18T22:50:35.078Z,87.77
2018-06-18T22:53:04.503Z,88.37
2018-06-18T22:55:33.893Z,88.89
2018-06-18T22:58:03.264Z,89.26
2018-06-18T23:00:32.615Z,89.39
2018-06-18T23:03:01.968Z,90.20
2018-06-18T23:05:31.272Z,89.27
2018-06-18T23:08:00.640Z,89.83
2018-06-18T23:10:29.958Z,89.92
2018-06-18T23:12:59.544Z,90.07
2018-06-18T23:15:28.888Z,90.34
2018-06-18T23:17:58.232Z,90.10
2018-06-18T23:20:27.564Z,89.40
2018-06-18T23:22:56.897Z,90.68
2018-06-18T23:25:26.248Z,89.84
2018-06-18T23:27:55.591Z,90.41
2018-06-18T23:30:24.927Z,90.61
2018-06-18T23:32:54.268Z,90.84
2018-06-18T23:35:23.651Z,90.24
2018-06-18T23:37:52.989Z,90.10
2018-06-18T23:40:22.313Z,90.07
2018-06-18T23:42:51.651Z,89.81
2018-06-18T23:45:20.976Z,90.76
2018-06-18T23:47:50.092Z,90.51
2018-06-18T23:50:19.447Z,90.43
2018-06-18T23:52:48.815Z,90.00
2018-06-18T23:55:18.152Z,89.73
2018-06-18T23:57:47.916Z,89.88
